createdAt,value
2019-02-11T00:00:51.911Z,925.4
2019-02-11T00:01:51.804Z,925.4
2019-02-11T00:02:51.724Z,925.4
2019-02-11T00:04:00.677Z,923.9
2019-02-11T00:05:00.567Z,925.3
2019-02-11T00:06:00.432Z,925.5
2019-02-11T00:07:00.324Z,925.5
2019-02-11T00:08:00.221Z,925.5
2019-02-11T00:09:00.101Z,925.4
2019-02-11T00:09:59.975Z,925.3
2019-02-11T00:11:00.585Z,925.4
2019-02-11T00:12:00.481Z,925.4
2019-02-11T00:13:00.400Z,925.4
2019-02-11T00:14:00.737Z,925.4
2019-02-11T00:15:00.617Z,925.4
2019-02-11T00:16:00.493Z,925.5
2019-02-11T00:17:00.389Z,925.6
2019-02-11T00:18:00.291Z,925.6
2019-02-11T00:19:00.176Z,925.7
2019-02-11T00:20:00.198Z,925.5
2019-02-11T00:21:00.159Z,925.5
2019-02-11T00:22:00.062Z,925.6
2019-02-11T00:22:59.947Z,925.6
2019-02-11T00:24:00.299Z,925.7
2019-02-11T00:25:00.211Z,925.7
2019-02-11T00:26:00.113Z,925.7
2019-02-11T00:27:00.009Z,925.6
2019-02-11T00:27:59.907Z,925.8
2019-02-11T00:28:59.792Z,925.7
2019-02-11T00:29:59.659Z,925.9
2019-02-11T00:30:59.543Z,925.8
2019-02-11T00:31:59.454Z,925.8
2019-02-11T00:33:00.028Z,925.8
2019-02-11T00:34:00.463Z,925.8
2019-02-11T00:35:00.557Z,925.7
2019-02-11T00:36:00.453Z,925.8
2019-02-11T00:37:00.339Z,925.9
2019-02-11T00:38:00.236Z,925.8
2019-02-11T00:39:00.099Z,925.8
2019-02-11T00:39:59.981Z,925.7
2019-02-11T00:40:59.856Z,925.8
2019-02-11T00:41:59.747Z,925.8
2019-02-11T00:42:59.651Z,925.8
2019-02-11T00:43:59.961Z,925.9
2019-02-11T00:44:59.857Z,925.9
2019-02-11T00:45:59.748Z,925.9
2019-02-11T00:46:59.711Z,925.9
2019-02-11T00:47:59.621Z,925.8
2019-02-11T00:48:59.506Z,925.9
2019-02-11T00:49:59.383Z,925.9
2019-02-11T00:50:59.277Z,925.9
2019-02-11T00:51:59.165Z,925.8
2019-02-11T00:52:59.071Z,925.9
2019-02-11T00:53:59.359Z,925.7
2019-02-11T00:54:59.231Z,925.8
2019-02-11T00:55:59.100Z,925.8
2019-02-11T00:56:58.993Z,925.8
2019-02-11T00:57:58.903Z,925.8
2019-02-11T00:58:58.837Z,925.8
2019-02-11T00:59:58.760Z,925.7
2019-02-11T01:00:58.647Z,925.8
2019-02-11T01:01:58.535Z,925.8
2019-02-11T01:02:58.452Z,925.7
2019-02-11T01:03:58.761Z,925.7
2019-02-11T01:04:58.661Z,925.7
2019-02-11T01:05:58.551Z,925.7
2019-02-11T01:06:58.443Z,925.8
2019-02-11T01:07:58.348Z,925.8
2019-02-11T01:08:58.222Z,925.7
2019-02-11T01:09:58.140Z,925.7
2019-02-11T01:10:58.079Z,925.9
2019-02-11T01:11:58.014Z,925.9
2019-02-11T01:12:57.919Z,925.7
2019-02-11T01:13:58.364Z,925.8
2019-02-11T01:14:58.270Z,925.8
2019-02-11T01:15:58.214Z,925.9
2019-02-11T01:16:58.131Z,926
2019-02-11T01:17:58.031Z,926
2019-02-11T01:18:57.920Z,926
2019-02-11T01:19:57.836Z,926.1
2019-02-11T01:20:57.739Z,926.1
2019-02-11T01:21:57.613Z,926
2019-02-11T01:22:57.520Z,925.9
2019-02-11T01:23:57.850Z,926.1
2019-02-11T01:24:57.727Z,926.1
2019-02-11T01:25:57.622Z,925.9
2019-02-11T01:26:57.522Z,926
2019-02-11T01:27:57.412Z,926.2
2019-02-11T01:28:57.281Z,926.2
2019-02-11T01:29:57.183Z,926.3
2019-02-11T01:30:57.056Z,926.2
2019-02-11T01:31:56.932Z,926.2
2019-02-11T01:32:56.825Z,926.3
2019-02-11T01:33:57.193Z,926.3
2019-02-11T01:34:57.074Z,926.3
2019-02-11T01:35:56.984Z,924.8
2019-02-11T01:36:56.866Z,926.5
2019-02-11T01:37:56.728Z,926.4
2019-02-11T01:38:56.614Z,926.5
2019-02-11T01:39:56.482Z,926.4
2019-02-11T01:40:56.388Z,926.4
2019-02-11T01:41:56.286Z,926.5
2019-02-11T01:42:56.162Z,926.4
2019-02-11T01:43:56.443Z,926.5
2019-02-11T01:44:56.342Z,926.5
2019-02-11T01:45:56.253Z,926.5
2019-02-11T01:46:56.126Z,926.3
2019-02-11T01:47:55.996Z,926.3
2019-02-11T01:48:55.882Z,926.3
2019-02-11T01:49:55.758Z,926.3
2019-02-11T01:50:55.664Z,926.3
2019-02-11T01:51:55.558Z,926.4
2019-02-11T01:52:55.440Z,926.2
2019-02-11T01:53:55.738Z,926.3
2019-02-11T01:54:55.614Z,926.2
2019-02-11T01:55:55.506Z,926.3
2019-02-11T01:56:55.406Z,926.2
2019-02-11T01:57:55.281Z,926
2019-02-11T01:58:55.160Z,926.3
2019-02-11T01:59:55.038Z,926.3
2019-02-11T02:00:54.938Z,926.2
2019-02-11T02:01:54.860Z,926.4
2019-02-11T02:02:54.740Z,926.2
2019-02-11T02:03:55.046Z,926.4
2019-02-11T02:04:54.935Z,926.4
2019-02-11T02:05:54.822Z,926.2
2019-02-11T02:06:54.704Z,926.4
2019-02-11T02:07:54.616Z,926.4
2019-02-11T02:08:54.510Z,926.3
2019-02-11T02:09:54.436Z,926.1
2019-02-11T02:10:54.319Z,926.3
2019-02-11T02:11:54.195Z,926.5
2019-02-11T02:12:54.087Z,926.3
2019-02-11T02:13:54.386Z,926.3
2019-02-11T02:14:54.271Z,926.3
2019-02-11T02:15:54.154Z,926.3
2019-02-11T02:16:54.032Z,926.3
2019-02-11T02:17:53.972Z,926.1
2019-02-11T02:18:53.832Z,926.2
2019-02-11T02:19:53.740Z,926.3
2019-02-11T02:20:53.626Z,926.3
2019-02-11T02:21:53.490Z,926.1
2019-02-11T02:22:53.382Z,926.2
2019-02-11T02:23:53.726Z,925.3
2019-02-11T02:24:53.447Z,926.2
2019-02-11T02:25:53.172Z,926.3
2019-02-11T02:26:52.884Z,926.2
2019-02-11T02:27:52.619Z,926.2
2019-02-11T02:28:52.364Z,926.1
2019-02-11T02:29:52.082Z,926.2
2019-02-11T02:30:51.812Z,926
2019-02-11T02:31:51.539Z,926.2
2019-02-11T02:32:51.267Z,926.2
2019-02-11T02:33:51.668Z,926.2
2019-02-11T02:34:51.576Z,926.2
2019-02-11T02:35:51.471Z,926.2
2019-02-11T02:36:51.379Z,926.2
2019-02-11T02:37:51.279Z,926.3
2019-02-11T02:38:51.228Z,926.3
2019-02-11T02:39:51.170Z,926.3
2019-02-11T02:40:51.115Z,926.4
2019-02-11T02:41:51.012Z,926.3
2019-02-11T02:42:50.936Z,926.4
2019-02-11T02:43:56.702Z,926.4
2019-02-11T02:44:56.611Z,926.2
2019-02-11T02:45:56.496Z,926.5
2019-02-11T02:46:56.401Z,926.5
2019-02-11T02:47:56.300Z,926.6
2019-02-11T02:48:56.191Z,926.6
2019-02-11T02:49:56.086Z,926.6
2019-02-11T02:50:55.983Z,926.7
2019-02-11T02:51:55.872Z,926.7
2019-02-11T02:52:55.767Z,926.5
2019-02-11T02:53:56.093Z,926.6
2019-02-11T02:54:55.880Z,926.6
2019-02-11T02:55:55.622Z,926.7
2019-02-11T02:56:55.348Z,926.5
2019-02-11T02:57:55.071Z,926.6
2019-02-11T02:58:54.817Z,926.6
2019-02-11T02:59:54.539Z,926.6
2019-02-11T03:00:54.292Z,926.7
2019-02-11T03:01:54.015Z,926.7
2019-02-11T03:02:53.748Z,926.7
2019-02-11T03:03:53.887Z,926.6
2019-02-11T03:04:53.618Z,926.8
2019-02-11T03:05:53.816Z,926.8
2019-02-11T03:06:53.580Z,926.7
2019-02-11T03:07:53.299Z,925.5
2019-02-11T03:08:53.039Z,926.8
2019-02-11T03:09:52.785Z,926.6
2019-02-11T03:10:52.512Z,926.7
2019-02-11T03:11:52.271Z,926.7
2019-02-11T03:12:52.006Z,926.7
2019-02-11T03:13:52.361Z,926.8
2019-02-11T03:14:52.251Z,926.8
2019-02-11T03:15:52.150Z,926.9
2019-02-11T03:16:52.044Z,927
2019-02-11T03:17:51.952Z,927
2019-02-11T03:18:51.846Z,926.8
2019-02-11T03:19:51.732Z,926.8
2019-02-11T03:20:51.663Z,927
2019-02-11T03:21:51.615Z,927
2019-02-11T03:22:51.533Z,926.9
2019-02-11T03:23:51.929Z,927
2019-02-11T03:24:51.837Z,927
2019-02-11T03:25:51.732Z,927.1
2019-02-11T03:26:51.622Z,927.1
2019-02-11T03:27:51.534Z,927.1
2019-02-11T03:28:51.593Z,927
2019-02-11T03:29:51.462Z,927.1
2019-02-11T03:30:51.426Z,927.2
2019-02-11T03:31:51.382Z,927.2
2019-02-11T03:32:51.347Z,927.3
2019-02-11T03:33:51.879Z,927.2
2019-02-11T03:34:51.839Z,927.3
2019-02-11T03:35:51.726Z,927.3
2019-02-11T03:36:51.620Z,927.3
2019-02-11T03:37:51.493Z,927.3
2019-02-11T03:38:51.410Z,927.4
2019-02-11T03:39:51.354Z,927.3
2019-02-11T03:40:51.235Z,927.4
2019-02-11T03:41:51.144Z,927.4
2019-02-11T03:42:51.067Z,927.1
2019-02-11T03:43:51.372Z,927.2
2019-02-11T03:44:51.177Z,927.4
2019-02-11T03:45:50.899Z,927.5
2019-02-11T03:46:50.636Z,927.4
2019-02-11T03:47:50.366Z,927.4
2019-02-11T03:48:50.085Z,927.3
2019-02-11T03:49:49.832Z,927.6
2019-02-11T03:50:49.558Z,927.6
2019-02-11T03:51:49.319Z,927.7
2019-02-11T03:52:49.053Z,927.7
2019-02-11T03:53:49.405Z,927.6
2019-02-11T03:54:49.317Z,927.7
2019-02-11T03:55:49.261Z,927.7
2019-02-11T03:56:49.189Z,927.8
2019-02-11T03:57:49.102Z,927.7
2019-02-11T03:58:48.995Z,927.8
2019-02-11T03:59:48.877Z,927.9
2019-02-11T04:00:48.785Z,927.9
2019-02-11T04:01:48.711Z,928
2019-02-11T04:02:48.596Z,928
2019-02-11T04:03:48.897Z,928
2019-02-11T04:04:48.791Z,928.1
2019-02-11T04:05:48.775Z,928.1
2019-02-11T04:06:48.709Z,928.2
2019-02-11T04:07:48.645Z,928.1
2019-02-11T04:08:48.563Z,928.1
2019-02-11T04:09:48.451Z,928.1
2019-02-11T04:10:48.351Z,928
2019-02-11T04:11:48.255Z,928.1
2019-02-11T04:12:48.153Z,928
2019-02-11T04:13:48.455Z,928
2019-02-11T04:14:48.176Z,928.2
2019-02-11T04:15:47.928Z,928
2019-02-11T04:16:47.698Z,928.3
2019-02-11T04:17:47.439Z,928.3
2019-02-11T04:18:47.165Z,928.3
2019-02-11T04:19:46.908Z,928.2
2019-02-11T04:20:48.555Z,928.4
2019-02-11T04:21:48.809Z,928.4
2019-02-11T04:22:48.551Z,928.4
2019-02-11T04:23:48.881Z,928.2
2019-02-11T04:24:48.789Z,928.4
2019-02-11T04:25:48.687Z,928.4
2019-02-11T04:26:48.599Z,928.4
2019-02-11T04:27:48.515Z,928.6
2019-02-11T04:28:48.495Z,928.5
2019-02-11T04:29:48.400Z,928.5
2019-02-11T04:30:48.299Z,928.7
2019-02-11T04:31:48.187Z,928.6
2019-02-11T04:32:48.086Z,928.7
2019-02-11T04:33:48.432Z,928.5
2019-02-11T04:34:48.318Z,928.7
2019-02-11T04:35:48.272Z,928.6
2019-02-11T04:36:48.187Z,928.7
2019-02-11T04:37:48.074Z,928.6
2019-02-11T04:38:47.972Z,928.6
2019-02-11T04:39:47.855Z,928.6
2019-02-11T04:40:47.749Z,928.6
2019-02-11T04:41:47.667Z,928.5
2019-02-11T04:42:47.563Z,928.5
2019-02-11T04:43:47.889Z,928.5
2019-02-11T04:44:47.793Z,928.5
2019-02-11T04:45:47.670Z,928.7
2019-02-11T04:46:47.604Z,928.5
2019-02-11T04:47:47.538Z,928.7
2019-02-11T04:48:47.439Z,928.7
2019-02-11T04:49:47.318Z,928.6
2019-02-11T04:50:47.232Z,928.6
2019-02-11T04:51:47.161Z,928.8
2019-02-11T04:52:47.070Z,928.8
2019-02-11T04:53:47.394Z,928.7
2019-02-11T04:54:47.298Z,928.8
2019-02-11T04:55:47.230Z,928.8
2019-02-11T04:56:47.122Z,928.7
2019-02-11T04:57:47.032Z,928.7
2019-02-11T04:58:46.942Z,928.6
2019-02-11T04:59:46.830Z,928.6
2019-02-11T05:00:46.756Z,928.7
2019-02-11T05:01:46.682Z,927
2019-02-11T05:02:46.583Z,928.4
2019-02-11T05:03:46.938Z,928.6
2019-02-11T05:04:46.838Z,928.5
2019-02-11T05:05:46.738Z,928.6
2019-02-11T05:06:46.664Z,928.6
2019-02-11T05:07:46.590Z,928.6
2019-02-11T05:08:46.482Z,928.5
2019-02-11T05:09:46.364Z,928.5
2019-02-11T05:10:46.249Z,928.6
2019-02-11T05:11:46.145Z,928.2
2019-02-11T05:12:46.048Z,928.6
2019-02-11T05:13:46.486Z,928.7
2019-02-11T05:14:46.380Z,928.6
2019-02-11T05:15:46.339Z,928.5
2019-02-11T05:16:46.245Z,928.5
2019-02-11T05:17:46.153Z,928.6
2019-02-11T05:18:46.102Z,928.5
2019-02-11T05:19:46.022Z,928.6
2019-02-11T05:20:45.922Z,928.5
2019-02-11T05:21:45.887Z,928.5
2019-02-11T05:22:45.822Z,928.6
2019-02-11T05:23:46.275Z,927.8
2019-02-11T05:24:46.001Z,928.5
2019-02-11T05:25:45.750Z,928.7
2019-02-11T05:26:45.489Z,928.6
2019-02-11T05:27:45.234Z,927.5
2019-02-11T05:28:44.981Z,928.7
2019-02-11T05:29:44.725Z,928.6
2019-02-11T05:30:44.471Z,928.6
2019-02-11T05:31:44.197Z,928.6
2019-02-11T05:32:43.922Z,928.5
2019-02-11T05:33:44.266Z,928.7
2019-02-11T05:34:44.193Z,928.6
2019-02-11T05:35:44.133Z,928.6
2019-02-11T05:36:44.032Z,928.7
2019-02-11T05:37:45.147Z,928.7
2019-02-11T05:38:45.055Z,928.8
2019-02-11T05:39:44.959Z,928.8
2019-02-11T05:40:44.849Z,928.8
2019-02-11T05:41:44.745Z,928.8
2019-02-11T05:42:44.651Z,928.8
2019-02-11T05:43:44.978Z,928.9
2019-02-11T05:44:55.022Z,929
2019-02-11T05:45:54.920Z,929
2019-02-11T05:46:54.813Z,929
2019-02-11T05:47:54.710Z,929
2019-02-11T05:48:54.584Z,929
2019-02-11T05:49:54.480Z,929
2019-02-11T05:50:54.422Z,929
2019-02-11T05:51:54.337Z,929
2019-02-11T05:52:54.235Z,929.1
2019-02-11T05:53:54.566Z,929
2019-02-11T05:54:54.498Z,929
2019-02-11T05:55:57.420Z,929
2019-02-11T05:56:57.314Z,929.2
2019-02-11T05:57:57.242Z,929.1
2019-02-11T05:58:57.128Z,929.2
2019-02-11T05:59:57.056Z,929.2
2019-02-11T06:00:56.943Z,929.2
2019-02-11T06:01:56.821Z,929.1
2019-02-11T06:02:56.723Z,929.3
2019-02-11T06:03:57.081Z,929.3
2019-02-11T06:04:57.068Z,929.3
2019-02-11T06:05:56.980Z,929.3
2019-02-11T06:06:56.929Z,929.3
2019-02-11T06:07:56.872Z,929.2
2019-02-11T06:08:56.769Z,929.4
2019-02-11T06:09:56.709Z,929.3
2019-02-11T06:10:56.607Z,929.4
2019-02-11T06:11:56.497Z,929.4
2019-02-11T06:12:56.385Z,929.4
2019-02-11T06:13:56.726Z,929.4
2019-02-11T06:15:05.657Z,929.5
2019-02-11T06:16:05.559Z,929.4
2019-02-11T06:17:05.451Z,929.4
2019-02-11T06:18:05.367Z,929.5
2019-02-11T06:19:05.281Z,929.5
2019-02-11T06:20:05.199Z,929.5
2019-02-11T06:21:05.145Z,929.5
2019-02-11T06:22:05.052Z,929.6
2019-02-11T06:23:04.965Z,929.5
2019-02-11T06:24:05.296Z,929.7
2019-02-11T06:25:05.250Z,929.4
2019-02-11T06:26:05.217Z,929.6
2019-02-11T06:27:05.127Z,929.7
2019-02-11T06:28:05.005Z,929.7
2019-02-11T06:29:04.911Z,929.8
2019-02-11T06:30:04.820Z,929.8
2019-02-11T06:31:04.731Z,929.9
2019-02-11T06:32:04.644Z,929.8
2019-02-11T06:33:04.552Z,929.9
2019-02-11T06:34:04.863Z,929.9
2019-02-11T06:35:04.598Z,929.9
2019-02-11T06:36:13.492Z,929.9
2019-02-11T06:37:13.254Z,929.9
2019-02-11T06:38:12.993Z,929.9
2019-02-11T06:39:12.737Z,930.1
2019-02-11T06:40:12.499Z,929.9
2019-02-11T06:41:12.278Z,930
2019-02-11T06:42:12.005Z,930
2019-02-11T06:43:11.731Z,929.2
2019-02-11T06:44:12.038Z,929.9
2019-02-11T06:45:14.301Z,930.2
2019-02-11T06:46:14.204Z,930.2
2019-02-11T06:47:14.088Z,930.3
2019-02-11T06:48:14.001Z,930.2
2019-02-11T06:49:13.894Z,930.3
2019-02-11T06:50:13.796Z,930.3
2019-02-11T06:51:13.716Z,930.4
2019-02-11T06:52:13.615Z,930.5
2019-02-11T06:53:13.527Z,930.3
2019-02-11T06:54:13.825Z,930.5
2019-02-11T06:55:13.712Z,930.6
2019-02-11T06:56:13.681Z,930.6
2019-02-11T06:57:13.569Z,930.6
2019-02-11T06:58:13.483Z,930.7
2019-02-11T06:59:13.391Z,930.6
2019-02-11T07:00:13.265Z,930.5
2019-02-11T07:01:13.141Z,930.8
2019-02-11T07:02:13.195Z,929
2019-02-11T07:03:13.095Z,930.7
2019-02-11T07:04:13.447Z,930.7
2019-02-11T07:05:13.361Z,930.8
2019-02-11T07:06:13.256Z,930.8
2019-02-11T07:07:13.137Z,930.8
2019-02-11T07:08:13.029Z,930.1
2019-02-11T07:09:12.948Z,930.8
2019-02-11T07:10:12.877Z,930.9
2019-02-11T07:11:12.781Z,930.9
2019-02-11T07:12:12.662Z,930.9
2019-02-11T07:13:12.625Z,930.9
2019-02-11T07:14:12.910Z,931
2019-02-11T07:15:22.804Z,930.6
2019-02-11T07:16:22.697Z,930.8
2019-02-11T07:17:22.590Z,930.8
2019-02-11T07:18:22.503Z,930.7
2019-02-11T07:19:22.424Z,931
2019-02-11T07:20:22.328Z,930.8
2019-02-11T07:21:22.216Z,930.8
2019-02-11T07:22:22.095Z,931
2019-02-11T07:23:21.987Z,931
2019-02-11T07:24:22.362Z,931
2019-02-11T07:25:22.278Z,931.1
2019-02-11T07:26:22.179Z,931.1
2019-02-11T07:27:22.158Z,931
2019-02-11T07:28:22.043Z,931.1
2019-02-11T07:29:21.914Z,931.2
2019-02-11T07:30:21.810Z,931.3
2019-02-11T07:31:21.682Z,931.2
2019-02-11T07:32:21.573Z,931.1
2019-02-11T07:33:21.456Z,931.3
2019-02-11T07:34:21.777Z,931.1
2019-02-11T07:35:21.688Z,931.2
2019-02-11T07:36:21.600Z,931.2
2019-02-11T07:37:21.524Z,931.2
2019-02-11T07:38:24.335Z,931.3
2019-02-11T07:39:24.227Z,931.4
2019-02-11T07:40:24.131Z,931.5
2019-02-11T07:41:24.026Z,931.5
2019-02-11T07:42:23.975Z,931.4
2019-02-11T07:43:23.868Z,931.4
2019-02-11T07:44:24.190Z,931.6
2019-02-11T07:45:31.162Z,931.5
2019-02-11T07:46:31.073Z,931.6
2019-02-11T07:47:30.964Z,931.6
2019-02-11T07:48:30.854Z,931.7
2019-02-11T07:49:30.808Z,929.9
2019-02-11T07:50:30.713Z,931.7
2019-02-11T07:51:30.618Z,931.7
2019-02-11T07:52:33.502Z,931.7
2019-02-11T07:53:33.396Z,931.7
2019-02-11T07:54:33.715Z,931.6
2019-02-11T07:55:33.632Z,931.7
2019-02-11T07:56:33.513Z,931.7
2019-02-11T07:57:33.412Z,931.7
2019-02-11T07:58:33.325Z,931.8
2019-02-11T07:59:33.227Z,931.8
2019-02-11T08:00:33.130Z,931.7
2019-02-11T08:01:33.026Z,931.6
2019-02-11T08:02:32.914Z,931.8
2019-02-11T08:03:32.823Z,931.8
2019-02-11T08:04:33.132Z,931.8
2019-02-11T08:05:33.070Z,931.8
2019-02-11T08:06:32.963Z,931.7
2019-02-11T08:07:32.866Z,931.7
2019-02-11T08:08:32.743Z,931.9
2019-02-11T08:09:32.621Z,931.8
2019-02-11T08:10:32.530Z,931.8
2019-02-11T08:11:32.434Z,931.9
2019-02-11T08:12:32.316Z,931.9
2019-02-11T08:13:32.204Z,931.9
2019-02-11T08:14:32.612Z,932
2019-02-11T08:15:39.559Z,932
2019-02-11T08:16:39.441Z,932
2019-02-11T08:17:39.414Z,931.9
2019-02-11T08:18:39.302Z,932.1
2019-02-11T08:19:39.204Z,932.1
2019-02-11T08:20:39.144Z,932.2
2019-02-11T08:21:39.028Z,932.1
2019-02-11T08:22:38.908Z,932.2
2019-02-11T08:23:38.801Z,932.1
2019-02-11T08:24:39.091Z,932.3
2019-02-11T08:25:39.019Z,932.1
2019-02-11T08:26:38.907Z,932.3
2019-02-11T08:27:38.805Z,932.2
2019-02-11T08:28:38.680Z,932.3
2019-02-11T08:29:38.562Z,932.3
2019-02-11T08:30:38.511Z,932.4
2019-02-11T08:31:38.386Z,932.4
2019-02-11T08:32:38.271Z,932.3
2019-02-11T08:33:38.172Z,932.4
2019-02-11T08:34:38.556Z,932.3
2019-02-11T08:35:38.442Z,932.5
2019-02-11T08:36:38.418Z,932.5
2019-02-11T08:37:38.348Z,932.5
2019-02-11T08:38:38.254Z,932.5
2019-02-11T08:39:38.168Z,932.5
2019-02-11T08:40:38.070Z,932.5
2019-02-11T08:41:37.982Z,932.5
2019-02-11T08:42:37.895Z,932.6
2019-02-11T08:43:37.792Z,932.6
2019-02-11T08:44:38.240Z,932.6
2019-02-11T08:45:38.146Z,932.5
2019-02-11T08:46:38.061Z,932.6
2019-02-11T08:47:37.960Z,932.6
2019-02-11T08:48:37.848Z,932.6
2019-02-11T08:49:37.885Z,932.6
2019-02-11T08:50:37.976Z,932
2019-02-11T08:51:37.890Z,932.7
2019-02-11T08:52:37.824Z,932.6
2019-02-11T08:53:37.710Z,932.6
2019-02-11T08:54:38.028Z,932.7
2019-02-11T08:55:37.912Z,932.1
2019-02-11T08:56:37.796Z,932.6
2019-02-11T08:57:37.744Z,932.8
2019-02-11T08:58:37.644Z,932.8
2019-02-11T08:59:37.559Z,932.9
2019-02-11T09:00:37.463Z,932.8
2019-02-11T09:01:37.364Z,932.8
2019-02-11T09:02:37.268Z,932.9
2019-02-11T09:03:37.245Z,932.9
2019-02-11T09:04:37.564Z,932.9
2019-02-11T09:05:37.470Z,932.9
2019-02-11T09:06:37.403Z,933
2019-02-11T09:07:37.297Z,932.9
2019-02-11T09:08:37.215Z,933
2019-02-11T09:09:37.125Z,933
2019-02-11T09:10:37.021Z,933.2
2019-02-11T09:11:36.936Z,933.1
2019-02-11T09:12:36.834Z,933.1
2019-02-11T09:13:36.747Z,933
2019-02-11T09:14:37.129Z,933.2
2019-02-11T09:15:37.025Z,933
2019-02-11T09:16:36.943Z,933.1
2019-02-11T09:17:39.623Z,933.2
2019-02-11T09:18:39.543Z,933.2
2019-02-11T09:19:39.463Z,933.2
2019-02-11T09:20:39.389Z,933
2019-02-11T09:21:39.293Z,933
2019-02-11T09:22:39.186Z,933.2
2019-02-11T09:23:39.105Z,933.2
2019-02-11T09:24:39.465Z,933.3
2019-02-11T09:25:39.364Z,933.3
2019-02-11T09:26:39.272Z,933.3
2019-02-11T09:27:39.169Z,933.2
2019-02-11T09:28:38.923Z,933.2
2019-02-11T09:29:38.647Z,933.2
2019-02-11T09:30:40.094Z,933.3
2019-02-11T09:31:39.822Z,933.4
2019-02-11T09:32:39.565Z,933.4
2019-02-11T09:33:39.281Z,933.4
2019-02-11T09:34:39.615Z,933.5
2019-02-11T09:35:39.511Z,933.4
2019-02-11T09:36:39.395Z,933.3
2019-02-11T09:37:39.289Z,933.4
2019-02-11T09:38:39.181Z,933.5
2019-02-11T09:39:39.137Z,933.5
2019-02-11T09:40:39.023Z,932.1
2019-02-11T09:41:38.906Z,933.6
2019-02-11T09:42:38.799Z,933.6
2019-02-11T09:43:38.693Z,933.5
2019-02-11T09:44:38.987Z,933.6
2019-02-11T09:45:38.893Z,933.6
2019-02-11T09:46:38.789Z,933.6
2019-02-11T09:47:40.530Z,933.6
2019-02-11T09:48:40.493Z,933.7
2019-02-11T09:49:40.375Z,933.8
2019-02-11T09:50:40.273Z,933.7
2019-02-11T09:51:40.182Z,933.9
2019-02-11T09:52:40.101Z,933.9
2019-02-11T09:53:39.999Z,933.8
2019-02-11T09:54:40.375Z,933.8
2019-02-11T09:55:40.297Z,933.9
2019-02-11T09:56:40.207Z,933.8
2019-02-11T09:57:40.086Z,933.9
2019-02-11T09:58:40.005Z,933.9
2019-02-11T09:59:40.411Z,934
2019-02-11T10:00:40.301Z,933.9
2019-02-11T10:01:40.295Z,933.9
2019-02-11T10:02:40.185Z,933.9
2019-02-11T10:03:40.077Z,934
2019-02-11T10:04:40.375Z,934
2019-02-11T10:05:40.249Z,934.1
2019-02-11T10:06:40.134Z,934.2
2019-02-11T10:07:40.085Z,934.2
2019-02-11T10:08:39.967Z,934.1
2019-02-11T10:09:39.867Z,934.2
2019-02-11T10:10:39.749Z,934.2
2019-02-11T10:11:39.654Z,934.2
2019-02-11T10:12:39.569Z,934.2
2019-02-11T10:13:39.486Z,934.2
2019-02-11T10:14:39.855Z,934.1
2019-02-11T10:15:39.737Z,934.3
2019-02-11T10:16:39.631Z,934.3
2019-02-11T10:17:39.513Z,934.4
2019-02-11T10:18:39.244Z,934.3
2019-02-11T10:19:38.976Z,934.2
2019-02-11T10:20:38.695Z,934.3
2019-02-11T10:21:38.617Z,934.3
2019-02-11T10:22:38.394Z,934.3
2019-02-11T10:23:38.278Z,934.2
2019-02-11T10:24:38.676Z,934.4
2019-02-11T10:25:38.588Z,934.3
2019-02-11T10:26:38.486Z,934.3
2019-02-11T10:27:38.366Z,934.4
2019-02-11T10:28:38.278Z,934.4
2019-02-11T10:29:38.185Z,934.5
2019-02-11T10:30:38.078Z,934.5
2019-02-11T10:31:37.966Z,934.6
2019-02-11T10:32:37.967Z,934.5
2019-02-11T10:33:37.895Z,934.5
2019-02-11T10:34:38.239Z,934.5
2019-02-11T10:35:43.324Z,934.6
2019-02-11T10:36:43.239Z,934.6
2019-02-11T10:37:43.145Z,934.6
2019-02-11T10:38:43.046Z,934.7
2019-02-11T10:39:42.952Z,934.6
2019-02-11T10:40:42.852Z,934.6
2019-02-11T10:41:42.753Z,934.7
2019-02-11T10:42:42.665Z,934.7
2019-02-11T10:43:42.556Z,934.7
2019-02-11T10:44:42.868Z,934.7
2019-02-11T10:45:42.778Z,934.6
2019-02-11T10:46:42.667Z,934.7
2019-02-11T10:47:42.543Z,933.8
2019-02-11T10:48:42.423Z,934.7
2019-02-11T10:49:42.369Z,934.7
2019-02-11T10:50:42.245Z,934.6
2019-02-11T10:51:42.161Z,933.5
2019-02-11T10:52:42.045Z,934.7
2019-02-11T10:53:41.946Z,934.7
2019-02-11T10:54:42.236Z,934.8
2019-02-11T10:55:42.117Z,934.8
2019-02-11T10:56:42.017Z,935
2019-02-11T10:57:41.900Z,934.9
2019-02-11T10:58:41.789Z,934.7
2019-02-11T10:59:41.676Z,934.8
2019-02-11T11:00:41.564Z,934.9
2019-02-11T11:01:41.476Z,934.9
2019-02-11T11:02:41.366Z,934.9
2019-02-11T11:03:41.266Z,934.9
2019-02-11T11:04:41.568Z,934.9
2019-02-11T11:05:41.533Z,935
2019-02-11T11:06:41.467Z,934.9
2019-02-11T11:07:41.349Z,934.9
2019-02-11T11:08:41.216Z,935
2019-02-11T11:09:41.108Z,935
2019-02-11T11:10:40.986Z,935
2019-02-11T11:11:40.918Z,935
2019-02-11T11:12:40.796Z,935
2019-02-11T11:13:40.690Z,935
2019-02-11T11:14:41.000Z,935
2019-02-11T11:15:40.872Z,934.8
2019-02-11T11:16:40.772Z,934.9
2019-02-11T11:17:40.692Z,935
2019-02-11T11:18:40.582Z,934.9
2019-02-11T11:19:40.480Z,935.1
2019-02-11T11:20:40.383Z,935.2
2019-02-11T11:21:40.268Z,935.2
2019-02-11T11:22:40.194Z,935.2
2019-02-11T11:23:40.104Z,935.1
2019-02-11T11:24:40.434Z,935.2
2019-02-11T11:25:40.378Z,935.2
2019-02-11T11:26:40.272Z,935.3
2019-02-11T11:27:40.190Z,935.2
2019-02-11T11:28:40.064Z,935.4
2019-02-11T11:29:39.942Z,935.3
2019-02-11T11:30:39.822Z,935.4
2019-02-11T11:31:39.714Z,935.4
2019-02-11T11:32:39.605Z,935.4
2019-02-11T11:33:39.517Z,935.5
2019-02-11T11:34:39.816Z,935.5
2019-02-11T11:35:39.721Z,935.5
2019-02-11T11:36:39.611Z,935.5
2019-02-11T11:37:39.512Z,933.8
2019-02-11T11:38:39.432Z,935.5
2019-02-11T11:39:39.298Z,934.7
2019-02-11T11:40:39.189Z,935.4
2019-02-11T11:41:39.062Z,935.6
2019-02-11T11:42:38.966Z,935.6
2019-02-11T11:43:38.884Z,935.7
2019-02-11T11:44:39.196Z,935.7
2019-02-11T11:45:39.076Z,935.7
2019-02-11T11:46:48.076Z,935.7
2019-02-11T11:47:47.998Z,935.7
2019-02-11T11:48:47.952Z,935.6
2019-02-11T11:49:47.838Z,935.7
2019-02-11T11:50:47.722Z,935.8
2019-02-11T11:51:47.605Z,935.8
2019-02-11T11:52:47.496Z,935.8
2019-02-11T11:53:47.438Z,935.7
2019-02-11T11:54:47.763Z,935.9
2019-02-11T11:55:47.793Z,935.8
2019-02-11T11:56:47.772Z,935.9
2019-02-11T11:57:47.904Z,935.8
2019-02-11T11:58:47.893Z,935.9
2019-02-11T11:59:47.853Z,936
2019-02-11T12:00:47.923Z,935.9
2019-02-11T12:01:47.895Z,935.9
2019-02-11T12:03:06.898Z,935.8
2019-02-11T12:04:07.816Z,936
2019-02-11T12:05:08.309Z,936
2019-02-11T12:06:08.338Z,936
2019-02-11T12:07:08.353Z,935.9
2019-02-11T12:08:08.308Z,936.1
2019-02-11T12:09:08.306Z,936
2019-02-11T12:10:08.442Z,936
2019-02-11T12:11:08.421Z,936
2019-02-11T12:12:08.407Z,936.1
2019-02-11T12:13:24.752Z,936.2
2019-02-11T12:14:24.728Z,936.1
2019-02-11T12:15:25.297Z,936.1
2019-02-11T12:16:25.240Z,936
2019-02-11T12:17:25.216Z,936
2019-02-11T12:18:25.216Z,936.1
2019-02-11T12:19:25.247Z,936.1
2019-02-11T12:20:25.352Z,934.6
2019-02-11T12:21:25.329Z,936.2
2019-02-11T12:22:25.294Z,936.2
2019-02-11T12:23:25.249Z,936.2
2019-02-11T12:24:25.256Z,936.3
2019-02-11T12:25:26.050Z,936.3
2019-02-11T12:26:26.014Z,936.2
2019-02-11T12:27:26.221Z,936.3
2019-02-11T12:28:26.222Z,936.2
2019-02-11T12:29:26.325Z,936.3
2019-02-11T12:30:26.408Z,936.3
2019-02-11T12:31:26.457Z,935.5
2019-02-11T12:32:26.389Z,936.3
2019-02-11T12:33:26.362Z,936.3
2019-02-11T12:34:26.308Z,936.3
2019-02-11T12:35:26.905Z,936.3
2019-02-11T12:36:26.873Z,936.2
2019-02-11T12:37:26.864Z,936.3
2019-02-11T12:38:26.909Z,936.2
2019-02-11T12:39:26.857Z,936.4
2019-02-11T12:40:26.908Z,936.2
2019-02-11T12:41:26.934Z,936.1
2019-02-11T12:42:26.877Z,936.4
2019-02-11T12:43:26.908Z,936.5
2019-02-11T12:44:26.915Z,936.5
2019-02-11T12:45:27.517Z,936.4
2019-02-11T12:46:27.529Z,936.5
2019-02-11T12:47:27.474Z,936.6
2019-02-11T12:48:27.421Z,936.5
2019-02-11T12:49:27.426Z,936.5
2019-02-11T12:50:27.620Z,936.6
2019-02-11T12:51:27.639Z,936.6
2019-02-11T12:52:27.672Z,936.6
2019-02-11T12:53:27.640Z,936.6
2019-02-11T12:54:27.624Z,935.9
2019-02-11T12:55:28.255Z,936.6
2019-02-11T12:56:28.301Z,936.7
2019-02-11T12:57:28.301Z,936.7
2019-02-11T12:58:28.234Z,936.7
2019-02-11T12:59:28.221Z,936.7